Terminal Aerodrome Forecast
Issued by NWS Melbourne, FL

Home | Current Version | Previous Version | Text Only | Print | Product List | Glossary On
Versions: 1 2 3 4 5 6 7 8 9 10 11 12 13 14 15 16 17
000
FTUS42 KMLB 301732
TAFVRB
TAF
KVRB 301732Z 3018/3118 26010KT P6SM VCSH SCT030
     FM302100 25009KT P6SM VCTS SCT035CB SCT080 BKN250
      TEMPO 3021/3023 3SM TSRA BKN030CB
     FM310000 25005KT P6SM SCT035 BKN250
     FM311400 23009KT P6SM SCT020 SCT250=

USA.gov is the U.S. government's official web portal to all federal, state and local government web resources and services.